sensor_id;sensor_type;location;lat;lon;timestamp;P1;durP1;ratioP1;P2;durP2;ratioP2
14599;SDS011;7386;45.586;12.854;2022-10-16T00:01:06;65.47;;;41.58;;
14599;SDS011;7386;45.586;12.854;2022-10-16T00:03:35;64.22;;;42.05;;
14599;SDS011;7386;45.586;12.854;2022-10-16T00:06:03;63.47;;;39.90;;
14599;SDS011;7386;45.586;12.854;2022-10-16T00:08:32;71.00;;;44.33;;
14599;SDS011;7386;45.586;12.854;2022-10-16T00:11:02;69.82;;;44.28;;
14599;SDS011;7386;45.586;12.854;2022-10-16T00:13:33;66.68;;;43.25;;
14599;SDS011;7386;45.586;12.854;2022-10-16T00:16:02;68.40;;;42.22;;
14599;SDS011;7386;45.586;12.854;2022-10-16T00:18:32;66.05;;;42.25;;
14599;SDS011;7386;45.586;12.854;2022-10-16T00:21:01;67.70;;;44.17;;
14599;SDS011;7386;45.586;12.854;2022-10-16T00:23:31;72.60;;;46.10;;
14599;SDS011;7386;45.586;12.854;2022-10-16T00:26:00;69.20;;;44.90;;
14599;SDS011;7386;45.586;12.854;2022-10-16T00:28:30;72.25;;;43.55;;
14599;SDS011;7386;45.586;12.854;2022-10-16T00:31:02;68.82;;;45.05;;
14599;SDS011;7386;45.586;12.854;2022-10-16T00:33:31;67.32;;;42.97;;
14599;SDS011;7386;45.586;12.854;2022-10-16T00:36:00;65.90;;;42.97;;
14599;SDS011;7386;45.586;12.854;2022-10-16T00:38:29;70.35;;;43.75;;
14599;SDS011;7386;45.586;12.854;2022-10-16T00:40:58;68.55;;;44.10;;
14599;SDS011;7386;45.586;12.854;2022-10-16T00:43:35;68.93;;;44.28;;
14599;SDS011;7386;45.586;12.854;2022-10-16T00:46:09;68.20;;;44.42;;
14599;SDS011;7386;45.586;12.854;2022-10-16T00:48:43;64.80;;;43.42;;
14599;SDS011;7386;45.586;12.854;2022-10-16T00:51:15;75.68;;;47.15;;
14599;SDS011;7386;45.586;12.854;2022-10-16T00:53:46;79.20;;;49.25;;
14599;SDS011;7386;45.586;12.854;2022-10-16T00:56:15;74.35;;;46.80;;
14599;SDS011;7386;45.586;12.854;2022-10-16T00:58:46;77.80;;;48.03;;
14599;SDS011;7386;45.586;12.854;2022-10-16T01:01:14;78.30;;;49.05;;
14599;SDS011;7386;45.586;12.854;2022-10-16T01:03:43;75.43;;;48.17;;
14599;SDS011;7386;45.586;12.854;2022-10-16T01:06:24;73.35;;;46.10;;
14599;SDS011;7386;45.586;12.854;2022-10-16T01:09:04;74.75;;;46.88;;
14599;SDS011;7386;45.586;12.854;2022-10-16T01:11:41;74.60;;;46.28;;
14599;SDS011;7386;45.586;12.854;2022-10-16T01:14:19;74.78;;;47.60;;
14599;SDS011;7386;45.586;12.854;2022-10-16T01:16:53;71.30;;;45.22;;
14599;SDS011;7386;45.586;12.854;2022-10-16T01:19:36;72.95;;;47.35;;
14599;SDS011;7386;45.586;12.854;2022-10-16T01:22:14;76.93;;;48.33;;
14599;SDS011;7386;45.586;12.854;2022-10-16T01:24:44;80.72;;;50.20;;
14599;SDS011;7386;45.586;12.854;2022-10-16T01:27:17;82.15;;;51.08;;
14599;SDS011;7386;45.586;12.854;2022-10-16T01:29:52;82.10;;;51.45;;
14599;SDS011;7386;45.586;12.854;2022-10-16T01:32:24;79.53;;;50.05;;
14599;SDS011;7386;45.586;12.854;2022-10-16T01:34:59;86.50;;;51.20;;
14599;SDS011;7386;45.586;12.854;2022-10-16T01:37:32;90.13;;;54.95;;
14599;SDS011;7386;45.586;12.854;2022-10-16T01:40:05;88.13;;;53.25;;
14599;SDS011;7386;45.586;12.854;2022-10-16T01:42:39;84.45;;;52.65;;
14599;SDS011;7386;45.586;12.854;2022-10-16T01:45:10;81.93;;;53.55;;
14599;SDS011;7386;45.586;12.854;2022-10-16T01:47:41;85.28;;;52.83;;
14599;SDS011;7386;45.586;12.854;2022-10-16T01:50:10;84.20;;;52.97;;
14599;SDS011;7386;45.586;12.854;2022-10-16T01:52:42;84.03;;;52.22;;
14599;SDS011;7386;45.586;12.854;2022-10-16T01:55:13;85.32;;;52.08;;
14599;SDS011;7386;45.586;12.854;2022-10-16T01:58:07;83.47;;;52.58;;
14599;SDS011;7386;45.586;12.854;2022-10-16T02:00:39;81.57;;;51.03;;
14599;SDS011;7386;45.586;12.854;2022-10-16T02:03:10;84.35;;;52.33;;
14599;SDS011;7386;45.586;12.854;2022-10-16T02:05:41;86.43;;;51.92;;
14599;SDS011;7386;45.586;12.854;2022-10-16T02:08:13;84.20;;;52.33;;
14599;SDS011;7386;45.586;12.854;2022-10-16T02:10:41;86.05;;;53.13;;
14599;SDS011;7386;45.586;12.854;2022-10-16T02:13:12;83.38;;;51.80;;
14599;SDS011;7386;45.586;12.854;2022-10-16T02:15:43;85.38;;;51.00;;
14599;SDS011;7386;45.586;12.854;2022-10-16T02:18:12;84.55;;;52.22;;
14599;SDS011;7386;45.586;12.854;2022-10-16T02:20:43;86.57;;;52.70;;
14599;SDS011;7386;45.586;12.854;2022-10-16T02:23:19;81.82;;;51.42;;
14599;SDS011;7386;45.586;12.854;2022-10-16T02:25:52;80.35;;;51.25;;
14599;SDS011;7386;45.586;12.854;2022-10-16T02:28:26;86.28;;;53.30;;
14599;SDS011;7386;45.586;12.854;2022-10-16T02:31:04;79.13;;;51.00;;
14599;SDS011;7386;45.586;12.854;2022-10-16T02:33:35;82.88;;;51.63;;
14599;SDS011;7386;45.586;12.854;2022-10-16T02:36:06;83.90;;;51.67;;
14599;SDS011;7386;45.586;12.854;2022-10-16T02:38:35;80.53;;;50.83;;
14599;SDS011;7386;45.586;12.854;2022-10-16T02:41:04;79.78;;;50.92;;
14599;SDS011;7386;45.586;12.854;2022-10-16T02:43:34;79.30;;;50.65;;
14599;SDS011;7386;45.586;12.854;2022-10-16T02:46:03;81.57;;;48.80;;
14599;SDS011;7386;45.586;12.854;2022-10-16T02:48:31;82.57;;;51.33;;
14599;SDS011;7386;45.586;12.854;2022-10-16T02:50:59;85.75;;;51.70;;
14599;SDS011;7386;45.586;12.854;2022-10-16T02:53:28;81.95;;;51.33;;
14599;SDS011;7386;45.586;12.854;2022-10-16T02:55:56;81.70;;;51.50;;
14599;SDS011;7386;45.586;12.854;2022-10-16T02:58:24;81.45;;;51.40;;
14599;SDS011;7386;45.586;12.854;2022-10-16T03:00:54;81.68;;;50.55;;
14599;SDS011;7386;45.586;12.854;2022-10-16T03:03:23;87.45;;;54.05;;
14599;SDS011;7386;45.586;12.854;2022-10-16T03:05:51;86.55;;;51.35;;
14599;SDS011;7386;45.586;12.854;2022-10-16T03:08:19;84.43;;;51.65;;
14599;SDS011;7386;45.586;12.854;2022-10-16T03:10:49;95.45;;;56.97;;
14599;SDS011;7386;45.586;12.854;2022-10-16T03:13:18;97.93;;;59.70;;
14599;SDS011;7386;45.586;12.854;2022-10-16T03:15:47;99.90;;;59.88;;
14599;SDS011;7386;45.586;12.854;2022-10-16T03:18:17;95.20;;;56.35;;
14599;SDS011;7386;45.586;12.854;2022-10-16T03:20:45;91.13;;;55.60;;
14599;SDS011;7386;45.586;12.854;2022-10-16T03:23:14;98.18;;;56.72;;
14599;SDS011;7386;45.586;12.854;2022-10-16T03:25:42;92.25;;;55.75;;
14599;SDS011;7386;45.586;12.854;2022-10-16T03:28:13;90.13;;;56.05;;
14599;SDS011;7386;45.586;12.854;2022-10-16T03:30:42;90.22;;;53.17;;
14599;SDS011;7386;45.586;12.854;2022-10-16T03:33:11;92.75;;;56.47;;
14599;SDS011;7386;45.586;12.854;2022-10-16T03:35:40;92.40;;;56.28;;
14599;SDS011;7386;45.586;12.854;2022-10-16T03:38:09;94.15;;;57.33;;
14599;SDS011;7386;45.586;12.854;2022-10-16T03:40:37;92.72;;;57.97;;
14599;SDS011;7386;45.586;12.854;2022-10-16T03:43:05;95.90;;;57.38;;
14599;SDS011;7386;45.586;12.854;2022-10-16T03:45:33;99.93;;;57.65;;
14599;SDS011;7386;45.586;12.854;2022-10-16T03:48:01;102.70;;;59.28;;
14599;SDS011;7386;45.586;12.854;2022-10-16T03:50:30;100.20;;;59.45;;
14599;SDS011;7386;45.586;12.854;2022-10-16T03:52:59;99.75;;;58.88;;
14599;SDS011;7386;45.586;12.854;2022-10-16T03:55:28;101.88;;;59.40;;
14599;SDS011;7386;45.586;12.854;2022-10-16T03:57:56;106.78;;;62.10;;
14599;SDS011;7386;45.586;12.854;2022-10-16T04:00:24;109.53;;;62.40;;
14599;SDS011;7386;45.586;12.854;2022-10-16T04:02:52;109.93;;;63.30;;
14599;SDS011;7386;45.586;12.854;2022-10-16T04:05:21;103.35;;;60.88;;
14599;SDS011;7386;45.586;12.854;2022-10-16T04:07:49;100.43;;;59.88;;
14599;SDS011;7386;45.586;12.854;2022-10-16T04:10:18;103.03;;;59.47;;
14599;SDS011;7386;45.586;12.854;2022-10-16T04:12:47;101.63;;;59.75;;
14599;SDS011;7386;45.586;12.854;2022-10-16T04:15:15;102.60;;;59.13;;
14599;SDS011;7386;45.586;12.854;2022-10-16T04:17:43;97.93;;;58.78;;
14599;SDS011;7386;45.586;12.854;2022-10-16T04:20:11;106.07;;;59.77;;
14599;SDS011;7386;45.586;12.854;2022-10-16T04:22:39;106.38;;;60.40;;
14599;SDS011;7386;45.586;12.854;2022-10-16T04:25:08;96.57;;;57.57;;
14599;SDS011;7386;45.586;12.854;2022-10-16T04:27:38;98.28;;;57.70;;
14599;SDS011;7386;45.586;12.854;2022-10-16T04:30:11;100.30;;;58.47;;
14599;SDS011;7386;45.586;12.854;2022-10-16T04:32:39;103.60;;;60.87;;
14599;SDS011;7386;45.586;12.854;2022-10-16T04:35:08;106.43;;;59.43;;
14599;SDS011;7386;45.586;12.854;2022-10-16T04:37:36;105.57;;;60.67;;
14599;SDS011;7386;45.586;12.854;2022-10-16T04:40:05;97.60;;;58.43;;
14599;SDS011;7386;45.586;12.854;2022-10-16T04:42:33;103.97;;;58.10;;
14599;SDS011;7386;45.586;12.854;2022-10-16T04:45:03;96.07;;;58.25;;
14599;SDS011;7386;45.586;12.854;2022-10-16T04:47:38;100.40;;;58.45;;
14599;SDS011;7386;45.586;12.854;2022-10-16T04:50:07;106.23;;;60.57;;
14599;SDS011;7386;45.586;12.854;2022-10-16T04:52:35;105.68;;;61.22;;
14599;SDS011;7386;45.586;12.854;2022-10-16T04:55:04;103.90;;;57.58;;
14599;SDS011;7386;45.586;12.854;2022-10-16T04:57:33;108.93;;;61.57;;
14599;SDS011;7386;45.586;12.854;2022-10-16T05:00:01;107.00;;;59.17;;
14599;SDS011;7386;45.586;12.854;2022-10-16T05:02:32;107.27;;;61.10;;
14599;SDS011;7386;45.586;12.854;2022-10-16T05:05:01;103.00;;;58.20;;
14599;SDS011;7386;45.586;12.854;2022-10-16T05:07:29;103.20;;;59.27;;
14599;SDS011;7386;45.586;12.854;2022-10-16T05:09:57;103.87;;;58.97;;
14599;SDS011;7386;45.586;12.854;2022-10-16T05:12:25;104.50;;;58.87;;
14599;SDS011;7386;45.586;12.854;2022-10-16T05:14:54;106.77;;;60.67;;
14599;SDS011;7386;45.586;12.854;2022-10-16T05:17:26;103.73;;;59.03;;
14599;SDS011;7386;45.586;12.854;2022-10-16T05:19:55;101.83;;;58.90;;
14599;SDS011;7386;45.586;12.854;2022-10-16T05:22:23;108.83;;;59.53;;
14599;SDS011;7386;45.586;12.854;2022-10-16T05:24:51;102.20;;;58.50;;
14599;SDS011;7386;45.586;12.854;2022-10-16T05:27:19;104.57;;;58.07;;
14599;SDS011;7386;45.586;12.854;2022-10-16T05:29:48;104.93;;;59.37;;
14599;SDS011;7386;45.586;12.854;2022-10-16T05:32:17;98.87;;;57.97;;
14599;SDS011;7386;45.586;12.854;2022-10-16T05:34:47;104.93;;;58.50;;
14599;SDS011;7386;45.586;12.854;2022-10-16T05:37:15;100.53;;;58.40;;
14599;SDS011;7386;45.586;12.854;2022-10-16T05:39:43;101.23;;;59.33;;
14599;SDS011;7386;45.586;12.854;2022-10-16T05:42:12;103.13;;;58.27;;
14599;SDS011;7386;45.586;12.854;2022-10-16T05:44:40;99.47;;;56.63;;
14599;SDS011;7386;45.586;12.854;2022-10-16T05:47:09;97.53;;;55.60;;
14599;SDS011;7386;45.586;12.854;2022-10-16T05:49:38;104.63;;;57.57;;
14599;SDS011;7386;45.586;12.854;2022-10-16T05:52:08;98.37;;;56.70;;
14599;SDS011;7386;45.586;12.854;2022-10-16T05:54:36;102.27;;;58.20;;
14599;SDS011;7386;45.586;12.854;2022-10-16T05:57:04;95.23;;;56.37;;
14599;SDS011;7386;45.586;12.854;2022-10-16T05:59:33;99.50;;;57.83;;
14599;SDS011;7386;45.586;12.854;2022-10-16T06:02:01;100.33;;;57.27;;
14599;SDS011;7386;45.586;12.854;2022-10-16T06:04:29;97.33;;;56.73;;
14599;SDS011;7386;45.586;12.854;2022-10-16T06:06:58;94.87;;;56.50;;
14599;SDS011;7386;45.586;12.854;2022-10-16T06:09:29;97.13;;;55.90;;
14599;SDS011;7386;45.586;12.854;2022-10-16T06:11:57;94.13;;;55.50;;
14599;SDS011;7386;45.586;12.854;2022-10-16T06:14:25;98.83;;;55.73;;
14599;SDS011;7386;45.586;12.854;2022-10-16T06:16:53;92.73;;;55.10;;
14599;SDS011;7386;45.586;12.854;2022-10-16T06:19:22;96.17;;;55.90;;
14599;SDS011;7386;45.586;12.854;2022-10-16T06:21:50;94.13;;;54.77;;
14599;SDS011;7386;45.586;12.854;2022-10-16T06:24:18;92.57;;;55.83;;
14599;SDS011;7386;45.586;12.854;2022-10-16T06:26:48;87.97;;;53.07;;
14599;SDS011;7386;45.586;12.854;2022-10-16T06:29:16;91.87;;;55.27;;
14599;SDS011;7386;45.586;12.854;2022-10-16T06:31:44;96.90;;;55.57;;
14599;SDS011;7386;45.586;12.854;2022-10-16T06:34:12;85.17;;;51.47;;
14599;SDS011;7386;45.586;12.854;2022-10-16T06:36:41;81.20;;;50.47;;
14599;SDS011;7386;45.586;12.854;2022-10-16T06:39:09;78.27;;;46.03;;
14599;SDS011;7386;45.586;12.854;2022-10-16T06:41:37;77.07;;;46.67;;
14599;SDS011;7386;45.586;12.854;2022-10-16T06:44:07;74.20;;;45.60;;
14599;SDS011;7386;45.586;12.854;2022-10-16T06:46:36;70.20;;;41.90;;
14599;SDS011;7386;45.586;12.854;2022-10-16T06:49:04;68.97;;;44.53;;
14599;SDS011;7386;45.586;12.854;2022-10-16T06:51:32;71.57;;;45.60;;
14599;SDS011;7386;45.586;12.854;2022-10-16T06:54:07;78.00;;;46.93;;
14599;SDS011;7386;45.586;12.854;2022-10-16T06:56:38;77.90;;;46.47;;
14599;SDS011;7386;45.586;12.854;2022-10-16T06:59:07;64.70;;;40.97;;
14599;SDS011;7386;45.586;12.854;2022-10-16T07:01:35;64.70;;;40.07;;
14599;SDS011;7386;45.586;12.854;2022-10-16T07:04:04;62.33;;;39.87;;
14599;SDS011;7386;45.586;12.854;2022-10-16T07:06:32;65.97;;;40.77;;
14599;SDS011;7386;45.586;12.854;2022-10-16T07:09:03;73.90;;;42.77;;
14599;SDS011;7386;45.586;12.854;2022-10-16T07:11:32;69.53;;;42.40;;
14599;SDS011;7386;45.586;12.854;2022-10-16T07:14:01;65.77;;;40.40;;
14599;SDS011;7386;45.586;12.854;2022-10-16T07:16:32;64.57;;;41.27;;
14599;SDS011;7386;45.586;12.854;2022-10-16T07:19:01;59.70;;;37.97;;
14599;SDS011;7386;45.586;12.854;2022-10-16T07:21:30;63.13;;;39.73;;
14599;SDS011;7386;45.586;12.854;2022-10-16T07:24:02;63.30;;;40.93;;
14599;SDS011;7386;45.586;12.854;2022-10-16T07:26:33;65.53;;;41.30;;
14599;SDS011;7386;45.586;12.854;2022-10-16T07:29:03;68.50;;;42.93;;
14599;SDS011;7386;45.586;12.854;2022-10-16T07:31:32;60.10;;;38.70;;
14599;SDS011;7386;45.586;12.854;2022-10-16T07:34:01;61.83;;;39.67;;
14599;SDS011;7386;45.586;12.854;2022-10-16T07:36:29;65.83;;;41.20;;
14599;SDS011;7386;45.586;12.854;2022-10-16T07:38:57;65.03;;;40.40;;
14599;SDS011;7386;45.586;12.854;2022-10-16T07:41:26;60.07;;;39.13;;
14599;SDS011;7386;45.586;12.854;2022-10-16T07:43:54;66.93;;;41.10;;
14599;SDS011;7386;45.586;12.854;2022-10-16T07:46:26;67.37;;;42.40;;
14599;SDS011;7386;45.586;12.854;2022-10-16T07:48:56;62.55;;;41.90;;
14599;SDS011;7386;45.586;12.854;2022-10-16T07:51:25;63.57;;;42.20;;
14599;SDS011;7386;45.586;12.854;2022-10-16T07:53:54;60.97;;;39.63;;
14599;SDS011;7386;45.586;12.854;2022-10-16T07:56:22;62.13;;;39.42;;
14599;SDS011;7386;45.586;12.854;2022-10-16T07:58:51;60.90;;;38.05;;
14599;SDS011;7386;45.586;12.854;2022-10-16T08:01:20;56.25;;;37.33;;
14599;SDS011;7386;45.586;12.854;2022-10-16T08:03:49;51.15;;;34.78;;
14599;SDS011;7386;45.586;12.854;2022-10-16T08:06:20;55.05;;;36.88;;
14599;SDS011;7386;45.586;12.854;2022-10-16T08:08:53;54.92;;;35.25;;
14599;SDS011;7386;45.586;12.854;2022-10-16T08:11:22;52.08;;;34.63;;
14599;SDS011;7386;45.586;12.854;2022-10-16T08:13:50;51.00;;;33.75;;
14599;SDS011;7386;45.586;12.854;2022-10-16T08:16:19;47.63;;;33.15;;
14599;SDS011;7386;45.586;12.854;2022-10-16T08:18:47;46.70;;;32.70;;
14599;SDS011;7386;45.586;12.854;2022-10-16T08:21:18;45.90;;;32.95;;
14599;SDS011;7386;45.586;12.854;2022-10-16T08:23:50;47.30;;;33.05;;
14599;SDS011;7386;45.586;12.854;2022-10-16T08:26:24;51.65;;;34.58;;
14599;SDS011;7386;45.586;12.854;2022-10-16T08:28:53;50.08;;;34.00;;
14599;SDS011;7386;45.586;12.854;2022-10-16T08:31:22;48.47;;;33.35;;
14599;SDS011;7386;45.586;12.854;2022-10-16T08:33:50;47.17;;;32.70;;
14599;SDS011;7386;45.586;12.854;2022-10-16T08:36:20;47.05;;;31.10;;
14599;SDS011;7386;45.586;12.854;2022-10-16T08:38:49;48.20;;;32.63;;
14599;SDS011;7386;45.586;12.854;2022-10-16T08:41:34;54.28;;;35.88;;
14599;SDS011;7386;45.586;12.854;2022-10-16T08:44:21;53.65;;;34.85;;
14599;SDS011;7386;45.586;12.854;2022-10-16T08:47:13;55.67;;;36.90;;
14599;SDS011;7386;45.586;12.854;2022-10-16T08:49:48;54.03;;;37.05;;
14599;SDS011;7386;45.586;12.854;2022-10-16T08:52:24;58.78;;;39.67;;
14599;SDS011;7386;45.586;12.854;2022-10-16T08:54:57;59.78;;;39.92;;
14599;SDS011;7386;45.586;12.854;2022-10-16T08:57:26;59.78;;;40.67;;
14599;SDS011;7386;45.586;12.854;2022-10-16T08:59:55;52.72;;;37.28;;
14599;SDS011;7386;45.586;12.854;2022-10-16T09:02:29;49.42;;;34.05;;
14599;SDS011;7386;45.586;12.854;2022-10-16T09:05:14;52.90;;;35.67;;
14599;SDS011;7386;45.586;12.854;2022-10-16T09:07:52;55.92;;;37.67;;
14599;SDS011;7386;45.586;12.854;2022-10-16T09:10:34;53.90;;;37.47;;
14599;SDS011;7386;45.586;12.854;2022-10-16T09:13:15;53.70;;;36.50;;
14599;SDS011;7386;45.586;12.854;2022-10-16T09:15:50;50.13;;;35.53;;
14599;SDS011;7386;45.586;12.854;2022-10-16T09:18:25;57.28;;;39.00;;
14599;SDS011;7386;45.586;12.854;2022-10-16T09:21:01;55.63;;;38.03;;
14599;SDS011;7386;45.586;12.854;2022-10-16T09:23:38;62.97;;;41.72;;
14599;SDS011;7386;45.586;12.854;2022-10-16T09:26:09;56.63;;;39.55;;
14599;SDS011;7386;45.586;12.854;2022-10-16T09:28:38;57.90;;;39.22;;
14599;SDS011;7386;45.586;12.854;2022-10-16T09:31:08;55.22;;;39.90;;
14599;SDS011;7386;45.586;12.854;2022-10-16T09:33:42;61.45;;;41.65;;
14599;SDS011;7386;45.586;12.854;2022-10-16T09:36:12;61.53;;;41.35;;
14599;SDS011;7386;45.586;12.854;2022-10-16T09:38:42;64.50;;;42.28;;
14599;SDS011;7386;45.586;12.854;2022-10-16T09:41:13;61.78;;;43.85;;
14599;SDS011;7386;45.586;12.854;2022-10-16T09:43:48;64.35;;;43.78;;
14599;SDS011;7386;45.586;12.854;2022-10-16T09:46:22;65.38;;;43.55;;
14599;SDS011;7386;45.586;12.854;2022-10-16T09:48:54;69.10;;;45.45;;
14599;SDS011;7386;45.586;12.854;2022-10-16T09:51:25;64.57;;;42.67;;
14599;SDS011;7386;45.586;12.854;2022-10-16T09:53:58;60.80;;;41.78;;
14599;SDS011;7386;45.586;12.854;2022-10-16T09:56:28;66.70;;;45.85;;
14599;SDS011;7386;45.586;12.854;2022-10-16T09:59:00;64.15;;;44.10;;
14599;SDS011;7386;45.586;12.854;2022-10-16T10:01:31;64.97;;;44.78;;
14599;SDS011;7386;45.586;12.854;2022-10-16T10:04:05;70.70;;;45.00;;
14599;SDS011;7386;45.586;12.854;2022-10-16T10:06:34;63.80;;;40.50;;
14599;SDS011;7386;45.586;12.854;2022-10-16T10:09:15;58.97;;;40.40;;
14599;SDS011;7386;45.586;12.854;2022-10-16T10:11:50;59.97;;;42.50;;
14599;SDS011;7386;45.586;12.854;2022-10-16T10:14:24;64.75;;;42.15;;
14599;SDS011;7386;45.586;12.854;2022-10-16T10:19:41;65.50;;;43.28;;
14599;SDS011;7386;45.586;12.854;2022-10-16T10:22:24;62.08;;;42.80;;
14599;SDS011;7386;45.586;12.854;2022-10-16T10:24:57;62.80;;;42.08;;
14599;SDS011;7386;45.586;12.854;2022-10-16T10:27:56;63.72;;;43.83;;
14599;SDS011;7386;45.586;12.854;2022-10-16T10:30:41;61.30;;;42.30;;
14599;SDS011;7386;45.586;12.854;2022-10-16T10:33:18;63.38;;;43.45;;
14599;SDS011;7386;45.586;12.854;2022-10-16T10:35:54;64.75;;;43.85;;
14599;SDS011;7386;45.586;12.854;2022-10-16T10:38:34;64.53;;;44.00;;
14599;SDS011;7386;45.586;12.854;2022-10-16T10:44:12;64.00;;;44.22;;
14599;SDS011;7386;45.586;12.854;2022-10-16T10:46:48;59.28;;;41.85;;
14599;SDS011;7386;45.586;12.854;2022-10-16T10:49:31;60.70;;;43.38;;
14599;SDS011;7386;45.586;12.854;2022-10-16T10:52:22;62.50;;;44.03;;
14599;SDS011;7386;45.586;12.854;2022-10-16T10:55:09;63.40;;;43.17;;
14599;SDS011;7386;45.586;12.854;2022-10-16T10:57:49;63.70;;;44.38;;
14599;SDS011;7386;45.586;12.854;2022-10-16T11:00:37;60.35;;;43.60;;
14599;SDS011;7386;45.586;12.854;2022-10-16T11:03:13;61.03;;;43.22;;
14599;SDS011;7386;45.586;12.854;2022-10-16T11:05:55;62.60;;;44.55;;
14599;SDS011;7386;45.586;12.854;2022-10-16T11:08:27;66.10;;;45.55;;
14599;SDS011;7386;45.586;12.854;2022-10-16T11:11:02;67.05;;;46.10;;
14599;SDS011;7386;45.586;12.854;2022-10-16T11:13:35;64.22;;;44.25;;
14599;SDS011;7386;45.586;12.854;2022-10-16T11:16:09;63.00;;;43.75;;
14599;SDS011;7386;45.586;12.854;2022-10-16T11:18:48;66.65;;;44.92;;
14599;SDS011;7386;45.586;12.854;2022-10-16T11:21:22;66.55;;;44.67;;
14599;SDS011;7386;45.586;12.854;2022-10-16T11:23:57;67.90;;;45.72;;
14599;SDS011;7386;45.586;12.854;2022-10-16T11:26:31;63.90;;;44.80;;
14599;SDS011;7386;45.586;12.854;2022-10-16T11:29:04;63.25;;;44.97;;
14599;SDS011;7386;45.586;12.854;2022-10-16T11:31:38;68.15;;;44.47;;
14599;SDS011;7386;45.586;12.854;2022-10-16T11:34:09;61.72;;;44.55;;
14599;SDS011;7386;45.586;12.854;2022-10-16T11:36:44;64.50;;;43.78;;
14599;SDS011;7386;45.586;12.854;2022-10-16T11:39:19;60.35;;;44.40;;
14599;SDS011;7386;45.586;12.854;2022-10-16T11:41:49;67.25;;;45.33;;
14599;SDS011;7386;45.586;12.854;2022-10-16T11:44:27;63.55;;;45.83;;
14599;SDS011;7386;45.586;12.854;2022-10-16T11:47:08;63.78;;;44.70;;
14599;SDS011;7386;45.586;12.854;2022-10-16T11:50:04;66.82;;;44.53;;
14599;SDS011;7386;45.586;12.854;2022-10-16T11:52:53;58.45;;;42.65;;
14599;SDS011;7386;45.586;12.854;2022-10-16T11:55:29;62.10;;;44.70;;
14599;SDS011;7386;45.586;12.854;2022-10-16T11:58:03;61.67;;;43.13;;
14599;SDS011;7386;45.586;12.854;2022-10-16T12:00:37;60.53;;;42.95;;
14599;SDS011;7386;45.586;12.854;2022-10-16T12:03:11;62.85;;;42.78;;
14599;SDS011;7386;45.586;12.854;2022-10-16T12:05:54;59.20;;;42.92;;
14599;SDS011;7386;45.586;12.854;2022-10-16T12:08:28;60.80;;;43.03;;
14599;SDS011;7386;45.586;12.854;2022-10-16T12:11:06;60.45;;;43.70;;
14599;SDS011;7386;45.586;12.854;2022-10-16T12:13:36;60.80;;;43.03;;
14599;SDS011;7386;45.586;12.854;2022-10-16T12:16:16;57.60;;;42.15;;
14599;SDS011;7386;45.586;12.854;2022-10-16T12:18:49;60.70;;;42.05;;
14599;SDS011;7386;45.586;12.854;2022-10-16T12:21:30;58.25;;;41.28;;
14599;SDS011;7386;45.586;12.854;2022-10-16T12:23:59;55.38;;;39.80;;
14599;SDS011;7386;45.586;12.854;2022-10-16T12:26:31;52.53;;;39.30;;
14599;SDS011;7386;45.586;12.854;2022-10-16T12:29:11;51.13;;;38.10;;
14599;SDS011;7386;45.586;12.854;2022-10-16T12:31:45;50.63;;;37.00;;
14599;SDS011;7386;45.586;12.854;2022-10-16T12:34:24;50.17;;;38.13;;
14599;SDS011;7386;45.586;12.854;2022-10-16T12:37:06;50.63;;;39.45;;
14599;SDS011;7386;45.586;12.854;2022-10-16T12:39:46;50.67;;;38.33;;
14599;SDS011;7386;45.586;12.854;2022-10-16T12:42:22;49.67;;;37.80;;
14599;SDS011;7386;45.586;12.854;2022-10-16T12:44:59;46.75;;;36.03;;
14599;SDS011;7386;45.586;12.854;2022-10-16T12:47:47;45.45;;;35.05;;
14599;SDS011;7386;45.586;12.854;2022-10-16T12:50:25;44.63;;;35.10;;
14599;SDS011;7386;45.586;12.854;2022-10-16T12:52:57;45.92;;;36.45;;
14599;SDS011;7386;45.586;12.854;2022-10-16T12:55:25;46.00;;;35.65;;
14599;SDS011;7386;45.586;12.854;2022-10-16T12:58:00;45.63;;;35.65;;
14599;SDS011;7386;45.586;12.854;2022-10-16T13:00:50;44.28;;;34.65;;
14599;SDS011;7386;45.586;12.854;2022-10-16T13:03:36;45.17;;;35.10;;
14599;SDS011;7386;45.586;12.854;2022-10-16T13:06:30;50.22;;;37.63;;
14599;SDS011;7386;45.586;12.854;2022-10-16T13:12:15;50.72;;;37.20;;
14599;SDS011;7386;45.586;12.854;2022-10-16T13:17:45;46.03;;;35.63;;
14599;SDS011;7386;45.586;12.854;2022-10-16T13:20:23;48.28;;;36.80;;
14599;SDS011;7386;45.586;12.854;2022-10-16T13:23:02;47.35;;;37.10;;
14599;SDS011;7386;45.586;12.854;2022-10-16T13:25:39;49.67;;;37.40;;
14599;SDS011;7386;45.586;12.854;2022-10-16T13:28:19;62.35;;;39.50;;
14599;SDS011;7386;45.586;12.854;2022-10-16T13:30:51;71.07;;;41.80;;
14599;SDS011;7386;45.586;12.854;2022-10-16T13:33:24;72.68;;;41.50;;
14599;SDS011;7386;45.586;12.854;2022-10-16T13:36:00;71.07;;;42.80;;
14599;SDS011;7386;45.586;12.854;2022-10-16T13:38:30;64.72;;;40.33;;
14599;SDS011;7386;45.586;12.854;2022-10-16T13:41:00;63.30;;;39.05;;
14599;SDS011;7386;45.586;12.854;2022-10-16T13:43:31;60.75;;;38.17;;
14599;SDS011;7386;45.586;12.854;2022-10-16T13:46:03;54.90;;;36.25;;
14599;SDS011;7386;45.586;12.854;2022-10-16T13:48:33;50.75;;;35.83;;
14599;SDS011;7386;45.586;12.854;2022-10-16T13:51:06;51.95;;;34.95;;
14599;SDS011;7386;45.586;12.854;2022-10-16T13:53:40;49.22;;;35.55;;
14599;SDS011;7386;45.586;12.854;2022-10-16T13:56:10;45.83;;;33.65;;
14599;SDS011;7386;45.586;12.854;2022-10-16T13:58:40;47.28;;;34.05;;
14599;SDS011;7386;45.586;12.854;2022-10-16T14:01:15;47.40;;;35.08;;
14599;SDS011;7386;45.586;12.854;2022-10-16T14:03:45;48.10;;;35.38;;
14599;SDS011;7386;45.586;12.854;2022-10-16T14:06:17;48.42;;;35.10;;
14599;SDS011;7386;45.586;12.854;2022-10-16T14:08:50;45.33;;;34.17;;
14599;SDS011;7386;45.586;12.854;2022-10-16T14:11:21;44.13;;;33.28;;
14599;SDS011;7386;45.586;12.854;2022-10-16T14:13:51;43.53;;;33.60;;
14599;SDS011;7386;45.586;12.854;2022-10-16T14:16:21;43.40;;;33.08;;
14599;SDS011;7386;45.586;12.854;2022-10-16T14:18:53;43.22;;;32.45;;
14599;SDS011;7386;45.586;12.854;2022-10-16T14:21:25;41.53;;;33.30;;
14599;SDS011;7386;45.586;12.854;2022-10-16T14:23:54;40.90;;;33.88;;
14599;SDS011;7386;45.586;12.854;2022-10-16T14:26:23;45.25;;;36.10;;
14599;SDS011;7386;45.586;12.854;2022-10-16T14:29:10;43.30;;;34.25;;
14599;SDS011;7386;45.586;12.854;2022-10-16T14:31:39;43.17;;;33.50;;
14599;SDS011;7386;45.586;12.854;2022-10-16T14:34:25;43.00;;;32.38;;
14599;SDS011;7386;45.586;12.854;2022-10-16T14:36:56;42.20;;;33.40;;
14599;SDS011;7386;45.586;12.854;2022-10-16T14:39:28;44.72;;;33.10;;
14599;SDS011;7386;45.586;12.854;2022-10-16T14:41:56;41.13;;;31.73;;
14599;SDS011;7386;45.586;12.854;2022-10-16T14:44:28;46.58;;;35.08;;
14599;SDS011;7386;45.586;12.854;2022-10-16T14:47:06;41.58;;;33.28;;
14599;SDS011;7386;45.586;12.854;2022-10-16T14:49:37;41.75;;;33.50;;
14599;SDS011;7386;45.586;12.854;2022-10-16T14:52:09;43.20;;;33.50;;
14599;SDS011;7386;45.586;12.854;2022-10-16T14:54:39;40.80;;;32.25;;
14599;SDS011;7386;45.586;12.854;2022-10-16T14:57:14;40.78;;;32.75;;
14599;SDS011;7386;45.586;12.854;2022-10-16T14:59:45;40.20;;;31.88;;
14599;SDS011;7386;45.586;12.854;2022-10-16T15:02:16;42.35;;;33.33;;